Time;durP1;ratioP1;P1;durP2;ratioP2;P2;SDS_P1;SDS_P2;PMS_P1;PMS_P2;Temp;Humidity;BMP_temperature;BMP_pressure;BME280_temperature;BME280_humidity;BME280_pressure;Samples;Min_cycle;Max_cycle;Signal;HPM_P1;HPM_P2
2021/08/10 00:02:00;;;;;;;9.18;2.75;;;16.00;99.90;;;;;;5048313;28;20037;-52
2021/08/10 00:04:26;;;;;;;4.85;2.92;;;15.90;99.90;;;;;;5047909;28;20025;-52
2021/08/10 00:06:51;;;;;;;10.02;3.42;;;15.90;99.90;;;;;;5048578;28;20025;-53
2021/08/10 00:09:17;;;;;;;5.60;2.72;;;16.00;99.90;;;;;;5048307;28;20100;-53
2021/08/10 00:11:42;;;;;;;6.32;3.13;;;16.00;99.90;;;;;;5048264;28;20043;-52
2021/08/10 00:14:11;;;;;;;5.88;2.83;;;16.00;99.90;;;;;;5047959;28;20041;-53
2021/08/10 00:16:37;;;;;;;6.55;2.35;;;16.00;99.90;;;;;;5047962;28;20032;-52
2021/08/10 00:19:03;;;;;;;6.05;2.40;;;16.00;99.90;;;;;;5048286;28;20597;-54
2021/08/10 00:21:29;;;;;;;6.85;2.50;;;16.00;99.90;;;;;;5048099;28;20115;-53
2021/08/10 00:23:54;;;;;;;6.03;2.58;;;16.00;99.90;;;;;;5047468;28;20123;-53
2021/08/10 00:26:20;;;;;;;3.80;2.42;;;16.00;99.90;;;;;;5048148;28;20032;-53
2021/08/10 00:28:45;;;;;;;4.60;2.58;;;16.10;99.90;;;;;;5048191;28;20059;-53
2021/08/10 00:31:11;;;;;;;6.28;2.78;;;16.10;99.90;;;;;;5048000;28;20056;-53
2021/08/10 00:33:36;;;;;;;3.40;2.33;;;16.10;99.90;;;;;;5047644;28;20056;-52
2021/08/10 00:36:02;;;;;;;7.90;3.05;;;16.10;99.90;;;;;;5048137;28;20025;-53
2021/08/10 00:38:28;;;;;;;5.18;2.65;;;16.10;99.90;;;;;;5048070;28;20025;-53
2021/08/10 00:40:55;;;;;;;6.55;2.78;;;16.10;99.90;;;;;;5047903;28;20029;-53
2021/08/10 00:43:27;;;;;;;4.90;2.75;;;16.10;99.90;;;;;;5047661;28;20155;-53
2021/08/10 00:45:52;;;;;;;4.50;2.70;;;16.00;99.90;;;;;;5051772;28;20028;-53
2021/08/10 00:48:19;;;;;;;5.13;2.50;;;16.00;99.90;;;;;;5051904;28;20021;-53
2021/08/10 00:50:45;;;;;;;5.82;2.97;;;15.90;99.90;;;;;;5050447;28;20025;-53
2021/08/10 00:53:11;;;;;;;11.40;2.50;;;15.90;99.90;;;;;;5051490;28;20025;-53
2021/08/10 00:55:36;;;;;;;8.02;3.10;;;15.80;99.90;;;;;;5051392;28;20037;-53
2021/08/10 00:58:02;;;;;;;5.32;3.10;;;15.80;99.90;;;;;;5051732;28;20578;-53
2021/08/10 01:00:28;;;;;;;7.25;2.80;;;15.70;99.90;;;;;;5050045;28;20376;-53
2021/08/10 01:02:53;;;;;;;6.07;2.53;;;15.60;99.90;;;;;;5051810;28;20116;-52
2021/08/10 01:05:18;;;;;;;3.97;2.70;;;15.70;99.90;;;;;;5049608;28;20025;-52
2021/08/10 01:07:57;;;;;;;7.20;2.95;;;15.70;99.90;;;;;;5051495;28;20093;-52
2021/08/10 01:10:34;;;;;;;4.95;2.45;;;15.70;99.90;;;;;;5051401;28;20446;-52
2021/08/10 01:13:22;;;;;;;6.47;2.70;;;15.70;99.90;;;;;;5051223;28;20033;-53
2021/08/10 01:16:16;;;;;;;5.25;3.03;;;15.70;99.90;;;;;;5051809;28;20021;-52
2021/08/10 01:18:53;;;;;;;10.05;2.88;;;15.60;99.90;;;;;;5033152;28;20163;-52
2021/08/10 01:21:24;;;;;;;5.97;2.22;;;15.60;99.90;;;;;;5051112;28;20387;-52
2021/08/10 01:23:57;;;;;;;6.07;2.88;;;15.50;99.90;;;;;;5050733;28;20439;-52
2021/08/10 01:26:34;;;;;;;6.85;3.35;;;15.50;99.90;;;;;;5050302;28;20616;-52
2021/08/10 01:29:16;;;;;;;5.53;2.83;;;15.50;99.90;;;;;;5049865;28;20021;-52
2021/08/10 01:31:42;;;;;;;5.95;2.65;;;15.40;99.90;;;;;;5050842;28;20040;-51
2021/08/10 01:34:17;;;;;;;6.30;2.65;;;15.40;99.90;;;;;;5050438;28;20229;-51
2021/08/10 01:36:44;;;;;;;5.30;3.08;;;15.40;99.90;;;;;;5051263;28;20021;-51
2021/08/10 01:39:11;;;;;;;5.50;2.30;;;15.40;99.90;;;;;;5049611;28;20350;-53
2021/08/10 01:41:38;;;;;;;6.75;2.67;;;15.40;99.90;;;;;;5049589;28;20355;-52
2021/08/10 01:44:07;;;;;;;5.20;2.88;;;15.40;99.90;;;;;;5050165;28;20108;-52
2021/08/10 01:46:33;;;;;;;9.65;2.88;;;15.40;99.90;;;;;;5050813;28;20025;-53
2021/08/10 01:49:00;;;;;;;3.13;2.30;;;15.40;99.90;;;;;;5050780;28;20562;-52
2021/08/10 01:51:28;;;;;;;6.68;2.63;;;15.30;99.90;;;;;;5050644;28;20117;-52
2021/08/10 01:53:58;;;;;;;6.53;2.72;;;15.30;99.90;;;;;;5050412;28;20021;-53
2021/08/10 01:56:25;;;;;;;3.27;2.23;;;15.30;99.90;;;;;;5051097;28;20021;-53
2021/08/10 01:58:52;;;;;;;8.85;3.30;;;15.30;99.90;;;;;;5050482;28;20328;-53
2021/08/10 02:01:18;;;;;;;3.55;2.60;;;15.30;99.90;;;;;;5050327;28;20055;-52
2021/08/10 02:03:45;;;;;;;4.97;2.85;;;15.30;99.90;;;;;;5049867;28;20056;-52
2021/08/10 02:06:15;;;;;;;9.38;2.95;;;15.30;99.90;;;;;;5050637;28;20374;-52
2021/08/10 02:08:41;;;;;;;4.30;2.17;;;15.20;99.90;;;;;;5050559;28;20410;-52
2021/08/10 02:11:08;;;;;;;5.60;2.28;;;15.20;99.90;;;;;;5050448;28;20025;-52
2021/08/10 02:13:34;;;;;;;6.75;2.65;;;15.30;99.90;;;;;;5049659;28;20186;-52
2021/08/10 02:16:00;;;;;;;3.75;2.13;;;15.30;99.90;;;;;;5050154;28;20111;-52
2021/08/10 02:18:26;;;;;;;4.32;2.42;;;15.30;99.90;;;;;;5050244;28;20032;-52
2021/08/10 02:20:56;;;;;;;5.97;2.28;;;15.30;99.90;;;;;;5048767;28;20256;-52
2021/08/10 02:23:23;;;;;;;5.17;2.70;;;15.20;99.90;;;;;;5049490;28;20055;-51
2021/08/10 02:25:50;;;;;;;5.68;2.50;;;15.30;99.90;;;;;;5050375;28;20013;-53
2021/08/10 02:28:17;;;;;;;6.35;2.70;;;15.30;99.90;;;;;;5049979;28;20025;-54
2021/08/10 02:30:53;;;;;;;6.00;2.22;;;15.20;99.90;;;;;;5050115;28;20036;-54
2021/08/10 02:33:20;;;;;;;4.78;2.33;;;15.20;99.90;;;;;;5049426;28;20064;-52
2021/08/10 02:35:50;;;;;;;3.70;2.90;;;15.20;99.90;;;;;;5050231;28;20112;-53
2021/08/10 02:38:19;;;;;;;2.70;2.08;;;15.10;99.90;;;;;;5049708;28;20029;-52
2021/08/10 02:40:47;;;;;;;7.07;2.38;;;15.20;99.90;;;;;;5049754;28;20032;-52
2021/08/10 02:43:14;;;;;;;4.70;2.53;;;15.20;99.90;;;;;;5049469;28;20017;-53
2021/08/10 02:45:39;;;;;;;4.53;2.60;;;15.20;99.90;;;;;;5049675;28;20028;-52
2021/08/10 02:48:05;;;;;;;4.22;2.33;;;15.20;99.90;;;;;;5049710;28;20099;-52
2021/08/10 02:50:32;;;;;;;3.63;2.70;;;15.20;99.90;;;;;;5049536;28;20021;-53
2021/08/10 02:52:58;;;;;;;3.38;2.13;;;15.20;99.90;;;;;;5049473;28;20029;-52
2021/08/10 02:55:24;;;;;;;3.65;2.65;;;15.20;99.90;;;;;;5048812;28;20017;-53
2021/08/10 02:58:23;;;;;;;7.40;3.03;;;15.20;99.90;;;;;;5049446;28;20417;-53
2021/08/10 03:00:54;;;;;;;4.63;2.13;;;15.20;99.90;;;;;;5049361;28;20478;-53
2021/08/10 03:03:24;;;;;;;6.63;2.30;;;15.10;99.90;;;;;;5048684;28;20108;-53
2021/08/10 03:05:55;;;;;;;4.10;2.65;;;15.10;99.90;;;;;;5049264;28;20017;-53
2021/08/10 03:08:28;;;;;;;5.70;2.70;;;15.10;99.90;;;;;;5049110;28;20030;-53
2021/08/10 03:10:55;;;;;;;5.28;2.67;;;15.00;99.90;;;;;;5049281;28;20255;-53
2021/08/10 03:13:24;;;;;;;6.45;4.07;;;15.00;99.90;;;;;;5048313;28;20099;-54
2021/08/10 03:15:52;;;;;;;3.95;2.60;;;14.90;99.90;;;;;;5048919;28;20079;-52
2021/08/10 03:18:21;;;;;;;2.97;2.63;;;14.80;99.90;;;;;;5048982;28;20048;-53
2021/08/10 03:20:47;;;;;;;5.32;2.78;;;14.90;99.90;;;;;;5047678;28;20483;-52
2021/08/10 03:23:15;;;;;;;6.55;2.60;;;14.90;99.90;;;;;;5048678;28;20059;-53
2021/08/10 03:25:43;;;;;;;4.63;3.00;;;14.90;99.90;;;;;;5048793;28;20036;-53
2021/08/10 03:28:10;;;;;;;6.63;2.38;;;14.90;99.90;;;;;;5047673;28;20020;-53
2021/08/10 03:30:37;;;;;;;7.85;2.60;;;14.90;99.90;;;;;;5049444;28;20099;-53
2021/08/10 03:33:03;;;;;;;4.88;2.80;;;14.90;99.90;;;;;;5049072;28;20104;-53
2021/08/10 03:35:29;;;;;;;3.42;2.33;;;14.90;99.90;;;;;;5047138;28;20100;-52
2021/08/10 03:37:55;;;;;;;5.90;2.92;;;15.00;99.90;;;;;;5047842;28;20112;-52
2021/08/10 03:40:21;;;;;;;5.75;2.55;;;15.00;99.90;;;;;;5048692;28;20294;-52
2021/08/10 03:42:48;;;;;;;4.45;2.75;;;15.00;99.90;;;;;;5048644;28;20025;-53
2021/08/10 03:45:14;;;;;;;4.53;2.70;;;15.10;99.90;;;;;;5048075;28;20052;-52
2021/08/10 03:47:40;;;;;;;5.60;2.38;;;15.10;99.90;;;;;;5048627;28;20047;-53
2021/08/10 03:50:07;;;;;;;7.00;2.47;;;15.10;99.90;;;;;;5048585;28;20452;-53
2021/08/10 03:52:32;;;;;;;4.15;2.63;;;15.10;99.90;;;;;;5048512;28;20506;-52
2021/08/10 03:54:58;;;;;;;7.18;2.78;;;15.20;99.90;;;;;;5047907;28;20162;-53
2021/08/10 03:57:24;;;;;;;6.03;2.83;;;15.20;99.90;;;;;;5048295;28;20039;-53
2021/08/10 03:59:53;;;;;;;5.82;2.78;;;15.20;99.90;;;;;;5048612;28;20072;-53
2021/08/10 04:02:20;;;;;;;5.28;2.40;;;15.20;99.90;;;;;;5048378;28;20498;-52
2021/08/10 04:04:48;;;;;;;5.43;2.60;;;15.30;99.90;;;;;;5047786;28;20349;-53
2021/08/10 04:07:15;;;;;;;4.05;2.40;;;15.30;99.90;;;;;;5048399;28;20245;-52
2021/08/10 04:09:41;;;;;;;4.82;2.35;;;15.30;99.90;;;;;;5048346;28;20044;-52
2021/08/10 04:12:08;;;;;;;4.20;2.70;;;15.40;99.90;;;;;;5048056;28;20114;-53
2021/08/10 04:14:34;;;;;;;4.93;2.00;;;15.40;99.90;;;;;;5047534;28;20182;-53
2021/08/10 04:17:02;;;;;;;6.78;2.30;;;15.40;99.90;;;;;;5048279;28;20108;-53
2021/08/10 04:19:29;;;;;;;5.28;2.28;;;15.40;99.90;;;;;;5050525;28;20044;-53
2021/08/10 04:21:55;;;;;;;5.65;2.55;;;15.50;99.90;;;;;;5052265;28;20062;-53
2021/08/10 04:24:21;;;;;;;4.88;2.67;;;15.50;99.90;;;;;;5052035;28;20108;-53
2021/08/10 04:26:46;;;;;;;5.20;2.90;;;15.40;99.90;;;;;;5052205;28;20025;-53
2021/08/10 04:29:13;;;;;;;5.35;2.70;;;15.40;99.90;;;;;;5052477;28;20032;-53
2021/08/10 04:31:39;;;;;;;6.35;2.75;;;15.40;99.90;;;;;;5052132;28;20020;-52
2021/08/10 04:34:05;;;;;;;4.05;2.53;;;15.50;99.90;;;;;;5051452;28;20044;-52
2021/08/10 04:36:30;;;;;;;3.70;2.30;;;15.50;99.90;;;;;;5052113;28;20449;-52
2021/08/10 04:38:56;;;;;;;5.10;2.45;;;15.40;99.90;;;;;;5052076;28;20024;-53
2021/08/10 04:41:21;;;;;;;4.75;2.30;;;15.40;99.90;;;;;;5051924;28;20071;-53
2021/08/10 04:43:47;;;;;;;5.90;2.85;;;15.40;99.90;;;;;;5051551;28;20044;-52
2021/08/10 04:46:12;;;;;;;4.38;2.70;;;15.40;99.90;;;;;;5052246;28;20389;-53
2021/08/10 04:48:38;;;;;;;7.03;3.00;;;15.40;99.90;;;;;;5051996;28;20479;-52
2021/08/10 04:51:04;;;;;;;4.90;2.67;;;15.40;99.90;;;;;;5052057;28;20032;-53
2021/08/10 04:53:30;;;;;;;6.78;2.50;;;15.40;99.90;;;;;;5051463;28;20394;-54
2021/08/10 04:55:55;;;;;;;7.35;2.47;;;15.40;99.90;;;;;;5050435;28;20523;-52
2021/08/10 04:58:20;;;;;;;6.53;2.65;;;15.40;99.90;;;;;;5051738;28;20033;-53
2021/08/10 05:00:48;;;;;;;7.97;2.95;;;15.40;99.90;;;;;;5051572;28;20029;-53
2021/08/10 05:03:14;;;;;;;5.50;2.38;;;15.40;99.90;;;;;;5051250;28;20074;-53
2021/08/10 05:05:39;;;;;;;6.68;2.28;;;15.40;99.90;;;;;;5051381;28;20478;-52
2021/08/10 05:08:06;;;;;;;4.85;2.55;;;15.50;99.90;;;;;;5052024;28;20435;-52
2021/08/10 05:10:32;;;;;;;4.15;2.72;;;15.50;99.90;;;;;;5051663;28;20027;-54
2021/08/10 05:12:57;;;;;;;6.30;2.83;;;15.60;99.90;;;;;;5050505;28;20123;-53
2021/08/10 05:15:23;;;;;;;4.80;2.97;;;15.60;99.90;;;;;;5049302;28;20041;-53
2021/08/10 05:17:49;;;;;;;8.55;3.10;;;15.70;99.90;;;;;;5050108;28;20025;-52
2021/08/10 05:20:14;;;;;;;3.40;2.20;;;15.60;99.90;;;;;;5050145;28;20394;-52
2021/08/10 05:22:41;;;;;;;6.40;2.60;;;15.70;99.90;;;;;;5049993;28;20032;-54
2021/08/10 05:25:07;;;;;;;8.15;2.70;;;15.70;99.90;;;;;;5049283;28;20098;-54
2021/08/10 05:27:33;;;;;;;6.53;2.72;;;15.80;99.90;;;;;;5048737;28;20597;-53
2021/08/10 05:29:59;;;;;;;5.55;2.85;;;15.80;99.90;;;;;;5049600;28;20112;-52
2021/08/10 05:32:24;;;;;;;4.00;2.60;;;15.90;99.90;;;;;;5050060;28;20040;-52
2021/08/10 05:34:50;;;;;;;5.88;2.50;;;15.90;99.90;;;;;;5049660;28;20025;-52
2021/08/10 05:37:15;;;;;;;6.72;2.05;;;16.00;99.90;;;;;;5049831;28;20379;-53
2021/08/10 05:39:41;;;;;;;3.35;2.25;;;16.00;99.90;;;;;;5048291;28;20071;-53
2021/08/10 05:42:06;;;;;;;8.93;2.35;;;16.00;99.90;;;;;;5049822;28;20102;-52
2021/08/10 05:44:32;;;;;;;2.92;1.92;;;16.00;99.90;;;;;;5048965;28;20021;-52
2021/08/10 05:46:57;;;;;;;5.50;2.60;;;16.10;99.90;;;;;;5049673;28;20033;-54
2021/08/10 05:49:23;;;;;;;5.22;2.28;;;16.10;99.90;;;;;;5049523;28;20017;-53
2021/08/10 05:51:49;;;;;;;6.90;3.28;;;16.20;99.90;;;;;;5048401;28;20065;-54
2021/08/10 05:54:14;;;;;;;6.47;2.67;;;16.30;99.90;;;;;;5049106;28;20307;-53
2021/08/10 05:56:40;;;;;;;5.10;2.78;;;16.30;99.90;;;;;;5050112;28;20029;-52
2021/08/10 05:59:06;;;;;;;6.68;2.95;;;16.30;99.90;;;;;;5049651;28;20108;-54
2021/08/10 06:01:35;;;;;;;5.55;2.60;;;16.40;99.90;;;;;;5049354;28;20074;-53
2021/08/10 06:04:01;;;;;;;6.72;2.75;;;16.50;99.90;;;;;;5048739;28;20025;-53
2021/08/10 06:06:26;;;;;;;5.60;2.90;;;16.60;99.90;;;;;;5049289;28;20029;-54
2021/08/10 06:08:53;;;;;;;5.97;2.58;;;16.60;99.90;;;;;;5047841;28;20029;-54
2021/08/10 06:11:18;;;;;;;6.63;2.72;;;16.70;99.90;;;;;;5010948;28;1094008;-52
2021/08/10 06:13:44;;;;;;;5.20;2.55;;;16.60;99.90;;;;;;5049484;28;20021;-53
2021/08/10 06:16:09;;;;;;;3.92;2.63;;;16.60;99.90;;;;;;5048870;28;20079;-54
2021/08/10 06:18:35;;;;;;;4.28;2.65;;;16.60;99.90;;;;;;5050161;28;20025;-52
2021/08/10 06:21:00;;;;;;;4.65;2.63;;;16.50;99.90;;;;;;5050121;28;20078;-53
2021/08/10 06:23:26;;;;;;;6.00;2.75;;;16.60;99.90;;;;;;5049267;28;20399;-53
2021/08/10 06:25:51;;;;;;;5.53;2.95;;;16.60;99.90;;;;;;5050038;28;20078;-53
2021/08/10 06:28:17;;;;;;;6.78;2.83;;;16.70;99.90;;;;;;5050213;28;20055;-53
2021/08/10 06:30:42;;;;;;;5.43;2.92;;;16.70;99.90;;;;;;5049986;28;20419;-54
2021/08/10 06:33:08;;;;;;;4.65;2.17;;;16.80;99.90;;;;;;5049820;28;20032;-53
2021/08/10 06:35:33;;;;;;;4.55;2.42;;;17.00;99.90;;;;;;5049156;28;20328;-53
2021/08/10 06:37:59;;;;;;;8.52;2.10;;;17.00;99.90;;;;;;5049636;28;20021;-53
2021/08/10 06:40:24;;;;;;;5.55;2.33;;;17.10;99.90;;;;;;5049768;28;20048;-53
2021/08/10 06:42:50;;;;;;;3.80;2.05;;;17.30;99.90;;;;;;5048902;28;20482;-53
2021/08/10 06:45:15;;;;;;;6.35;2.25;;;17.30;99.90;;;;;;5049036;28;20029;-53
2021/08/10 06:47:42;;;;;;;5.20;2.65;;;17.40;99.90;;;;;;5049561;28;20075;-54
2021/08/10 06:50:08;;;;;;;8.40;2.83;;;17.40;99.90;;;;;;5050067;28;20013;-53
2021/08/10 06:52:34;;;;;;;6.55;2.50;;;17.40;99.90;;;;;;5049704;28;20021;-53
2021/08/10 06:54:59;;;;;;;3.65;2.58;;;17.60;99.90;;;;;;5049138;28;20029;-54
2021/08/10 06:57:25;;;;;;;7.90;3.03;;;17.70;99.90;;;;;;5049891;28;20025;-54
2021/08/10 06:59:51;;;;;;;7.07;2.90;;;17.80;99.90;;;;;;5049574;28;20040;-54
2021/08/10 07:02:16;;;;;;;5.47;2.47;;;17.90;99.90;;;;;;5049439;28;20025;-54
2021/08/10 07:04:42;;;;;;;6.20;2.47;;;17.90;99.90;;;;;;5048665;28;20028;-53
2021/08/10 07:07:07;;;;;;;3.47;2.20;;;17.90;99.90;;;;;;5049254;28;20027;-54
2021/08/10 07:09:33;;;;;;;7.22;3.17;;;17.90;99.90;;;;;;5049348;28;20394;-53
2021/08/10 07:11:59;;;;;;;5.32;2.35;;;17.90;99.90;;;;;;5049092;28;20032;-54
2021/08/10 07:14:24;;;;;;;3.00;2.40;;;17.90;99.90;;;;;;5048640;28;20438;-54
2021/08/10 07:16:50;;;;;;;5.03;2.72;;;17.90;99.90;;;;;;5049309;28;20040;-53
2021/08/10 07:19:15;;;;;;;6.15;3.10;;;18.00;99.90;;;;;;5049255;28;20031;-54
2021/08/10 07:21:42;;;;;;;5.35;3.03;;;17.90;99.90;;;;;;5049042;28;20032;-53
2021/08/10 07:24:08;;;;;;;4.32;2.55;;;17.90;99.90;;;;;;5048516;28;20017;-53
2021/08/10 07:26:34;;;;;;;5.63;2.40;;;17.90;99.90;;;;;;5049186;28;20033;-53
2021/08/10 07:29:00;;;;;;;4.40;2.42;;;17.80;99.90;;;;;;5049234;28;20031;-53
2021/08/10 07:31:26;;;;;;;4.22;2.45;;;17.80;99.90;;;;;;5047880;28;20494;-54
2021/08/10 07:33:51;;;;;;;5.82;2.75;;;17.80;99.90;;;;;;5048289;28;20067;-53
2021/08/10 07:36:17;;;;;;;6.72;2.22;;;17.80;99.90;;;;;;5048845;28;20475;-53
2021/08/10 07:38:46;;;;;;;6.00;2.40;;;17.80;99.90;;;;;;5048940;28;20116;-53
2021/08/10 07:41:12;;;;;;;5.40;2.13;;;17.70;99.90;;;;;;5048741;28;20061;-53
2021/08/10 07:43:38;;;;;;;6.88;2.67;;;17.70;99.90;;;;;;5046963;28;20247;-53
2021/08/10 07:46:04;;;;;;;4.00;2.35;;;17.70;99.90;;;;;;5048753;28;20029;-54
2021/08/10 07:48:30;;;;;;;4.00;2.55;;;17.80;99.90;;;;;;5048712;28;20061;-53
2021/08/10 07:50:56;;;;;;;6.97;2.33;;;17.90;99.90;;;;;;5048490;28;20236;-53
2021/08/10 07:53:23;;;;;;;3.75;2.40;;;18.00;99.90;;;;;;5047918;28;20104;-53
2021/08/10 07:55:49;;;;;;;4.43;2.40;;;18.10;99.90;;;;;;5048708;28;20115;-53
2021/08/10 07:58:14;;;;;;;4.85;2.25;;;18.20;99.90;;;;;;5048503;28;20107;-53
2021/08/10 08:00:40;;;;;;;3.80;1.77;;;18.40;99.90;;;;;;5047139;28;20108;-54
2021/08/10 08:03:06;;;;;;;4.85;2.45;;;18.60;99.90;;;;;;5048940;28;20037;-53
2021/08/10 08:05:32;;;;;;;6.20;2.50;;;18.90;99.90;;;;;;5047979;28;20259;-54
2021/08/10 08:07:58;;;;;;;5.18;2.60;;;19.20;99.90;;;;;;5048655;28;20025;-53
2021/08/10 08:10:23;;;;;;;4.18;2.70;;;19.40;99.90;;;;;;5048349;28;20158;-53
2021/08/10 08:12:49;;;;;;;3.22;2.13;;;19.40;99.90;;;;;;5048107;28;20076;-53
2021/08/10 08:15:15;;;;;;;4.95;2.25;;;19.40;99.90;;;;;;5046460;28;20041;-53
2021/08/10 08:17:40;;;;;;;4.15;2.10;;;19.50;99.90;;;;;;5046985;28;20494;-53
2021/08/10 08:20:06;;;;;;;5.28;3.00;;;19.60;99.90;;;;;;5048401;28;20029;-53
2021/08/10 08:22:32;;;;;;;4.35;2.72;;;19.70;99.90;;;;;;5048293;28;20119;-53
2021/08/10 08:24:58;;;;;;;8.02;2.58;;;20.10;99.90;;;;;;5047656;28;20159;-53
2021/08/10 08:27:23;;;;;;;5.97;2.50;;;20.30;99.90;;;;;;5048261;28;20028;-53
2021/08/10 08:29:48;;;;;;;7.13;2.60;;;20.40;99.90;;;;;;5048178;28;20037;-53
2021/08/10 08:32:14;;;;;;;5.57;2.55;;;20.60;99.90;;;;;;5048579;28;20159;-53
2021/08/10 08:34:40;;;;;;;6.32;2.30;;;20.60;99.90;;;;;;5046006;28;20344;-53
2021/08/10 08:37:05;;;;;;;4.45;2.13;;;20.90;99.90;;;;;;5048016;28;20103;-54
2021/08/10 08:39:31;;;;;;;4.72;2.22;;;21.10;99.10;;;;;;5048405;28;20036;-54
2021/08/10 08:42:01;;;;;;;5.75;2.20;;;21.70;99.00;;;;;;5048050;28;20028;-54
2021/08/10 08:44:34;;;;;;;3.58;1.88;;;22.70;96.50;;;;;;5047422;28;20033;-53
2021/08/10 08:47:07;;;;;;;4.05;1.98;;;23.80;95.90;;;;;;5047947;28;20061;-53
2021/08/10 08:49:35;;;;;;;4.47;1.85;;;24.90;93.30;;;;;;5047992;28;20534;-54
2021/08/10 08:52:03;;;;;;;4.45;2.10;;;26.40;90.30;;;;;;5047865;28;20029;-53
2021/08/10 08:54:33;;;;;;;3.88;2.10;;;27.60;82.90;;;;;;5047272;28;20230;-52
2021/08/10 08:57:00;;;;;;;4.05;2.53;;;28.90;73.00;;;;;;5047737;28;20051;-52
2021/08/10 08:59:26;;;;;;;5.35;2.35;;;29.50;69.10;;;;;;5047813;28;20025;-52
2021/08/10 09:01:52;;;;;;;2.63;1.98;;;29.20;67.70;;;;;;5047738;28;20102;-52
2021/08/10 09:04:19;;;;;;;3.90;2.30;;;28.90;66.60;;;;;;5047289;28;20503;-53
2021/08/10 09:06:45;;;;;;;6.28;2.50;;;28.60;67.60;;;;;;5051481;28;20102;-52
2021/08/10 09:09:18;;;;;;;3.28;2.22;;;28.20;65.30;;;;;;5051637;28;20425;-53
2021/08/10 09:11:48;;;;;;;3.95;2.45;;;27.10;66.90;;;;;;5051329;28;20449;-53
2021/08/10 09:14:14;;;;;;;3.55;2.42;;;27.90;66.40;;;;;;5050560;28;20221;-53
2021/08/10 09:17:00;;;;;;;2.88;2.33;;;28.50;65.20;;;;;;5051234;28;20059;-53
2021/08/10 09:19:47;;;;;;;3.42;2.58;;;28.20;63.50;;;;;;5051216;28;20033;-53
2021/08/10 09:22:16;;;;;;;4.28;2.50;;;27.50;65.10;;;;;;5050989;28;20021;-52
2021/08/10 09:24:45;;;;;;;2.72;2.03;;;27.40;67.30;;;;;;5050340;28;20493;-53
2021/08/10 09:27:39;;;;;;;3.72;2.13;;;28.10;64.80;;;;;;5051022;28;20475;-54
2021/08/10 09:30:15;;;;;;;2.20;2.00;;;28.40;64.90;;;;;;5051053;28;20021;-53
2021/08/10 09:32:58;;;;;;;3.58;2.03;;;29.10;63.50;;;;;;5051056;28;20021;-53
2021/08/10 09:35:28;;;;;;;3.10;2.10;;;30.00;60.60;;;;;;5050374;28;20482;-53
2021/08/10 09:38:07;;;;;;;4.30;1.92;;;30.70;60.90;;;;;;5050941;28;20036;-54
2021/08/10 09:40:39;;;;;;;6.50;2.30;;;31.70;58.00;;;;;;5050931;28;20108;-53
2021/08/10 09:43:28;;;;;;;6.78;2.72;;;31.70;56.30;;;;;;5050833;28;20057;-53
2021/08/10 09:46:04;;;;;;;3.17;2.07;;;31.40;56.40;;;;;;5050936;28;20159;-53
2021/08/10 09:48:29;;;;;;;4.53;2.00;;;31.20;58.90;;;;;;5050759;28;20260;-54
2021/08/10 09:51:05;;;;;;;3.83;2.10;;;32.40;55.60;;;;;;5050631;28;20033;-54
2021/08/10 09:53:30;;;;;;;4.65;2.15;;;33.20;53.20;;;;;;5050118;28;20032;-54
2021/08/10 09:55:58;;;;;;;3.13;2.00;;;33.60;53.00;;;;;;5050513;28;20029;-54
2021/08/10 09:58:24;;;;;;;4.63;2.53;;;33.90;51.10;;;;;;5050563;28;20013;-54
2021/08/10 10:00:50;;;;;;;4.50;3.17;;;33.30;52.20;;;;;;5050329;28;20108;-54
2021/08/10 10:03:21;;;;;;;3.47;2.50;;;33.40;51.60;;;;;;5049825;28;20028;-54
2021/08/10 10:05:47;;;;;;;5.78;2.75;;;33.90;52.20;;;;;;5049257;28;20024;-54
2021/08/10 10:08:23;;;;;;;7.25;2.83;;;34.40;51.50;;;;;;5050164;28;20072;-54
2021/08/10 10:10:52;;;;;;;6.40;3.72;;;35.20;49.40;;;;;;5050321;28;20539;-54
2021/08/10 10:13:20;;;;;;;3.60;3.20;;;35.30;47.90;;;;;;5049745;28;20060;-54
2021/08/10 10:15:46;;;;;;;4.13;3.30;;;36.10;45.60;;;;;;5049334;28;20029;-54
2021/08/10 10:18:13;;;;;;;4.82;3.92;;;34.40;46.70;;;;;;5049735;28;20021;-54
2021/08/10 10:20:46;;;;;;;5.90;3.95;;;34.00;46.80;;;;;;5050047;28;20025;-54
2021/08/10 10:23:17;;;;;;;6.57;3.63;;;34.40;48.60;;;;;;5049676;28;20017;-54
2021/08/10 10:25:43;;;;;;;5.43;3.40;;;35.40;45.70;;;;;;5049910;28;20486;-54
2021/08/10 10:28:09;;;;;;;6.13;3.92;;;34.90;46.50;;;;;;5049936;28;20029;-54
2021/08/10 10:30:34;;;;;;;4.60;3.58;;;35.30;44.40;;;;;;5049989;28;20060;-54
2021/08/10 10:33:02;;;;;;;6.43;3.78;;;36.00;44.70;;;;;;5049639;28;20097;-54
2021/08/10 10:35:28;;;;;;;5.78;4.10;;;35.80;44.30;;;;;;5048971;28;20376;-54
2021/08/10 10:37:55;;;;;;;4.90;3.35;;;35.90;44.90;;;;;;5049777;28;20059;-54
2021/08/10 10:40:22;;;;;;;5.50;3.53;;;34.80;44.50;;;;;;5049621;28;20021;-54
2021/08/10 10:42:53;;;;;;;5.60;3.78;;;35.10;44.20;;;;;;5049807;28;20056;-54
2021/08/10 10:45:34;;;;;;;4.50;3.40;;;34.50;44.70;;;;;;5048859;28;20013;-54
2021/08/10 10:47:59;;;;;;;5.50;3.58;;;34.10;46.70;;;;;;5049382;28;20360;-54
2021/08/10 10:50:25;;;;;;;8.55;4.20;;;33.10;45.30;;;;;;5049617;28;20025;-54
2021/08/10 10:53:06;;;;;;;7.28;3.97;;;32.00;47.60;;;;;;5049569;28;20086;-53
2021/08/10 10:55:40;;;;;;;5.18;3.47;;;30.70;48.20;;;;;;5048811;28;20398;-54
2021/08/10 10:58:23;;;;;;;6.13;4.13;;;29.50;51.80;;;;;;5049414;28;20104;-53
2021/08/10 11:01:15;;;;;;;7.95;3.85;;;29.50;54.00;;;;;;5047930;28;20025;-54
2021/08/10 11:04:01;;;;;;;5.63;3.97;;;29.50;53.20;;;;;;5048865;28;20036;-54
2021/08/10 11:06:40;;;;;;;5.60;3.88;;;30.60;49.50;;;;;;5049532;28;20137;-54
2021/08/10 11:09:05;;;;;;;5.30;3.75;;;30.50;49.60;;;;;;5049382;28;20291;-54
2021/08/10 11:11:48;;;;;;;6.70;3.95;;;31.30;49.00;;;;;;5048940;28;20120;-54
2021/08/10 11:14:35;;;;;;;4.38;3.63;;;32.10;48.90;;;;;;5048416;28;20025;-55
2021/08/10 11:17:18;;;;;;;5.75;3.60;;;33.20;48.60;;;;;;5049306;28;20475;-55
2021/08/10 11:19:46;;;;;;;5.80;3.58;;;33.00;48.20;;;;;;5048873;28;20025;-55
2021/08/10 11:22:14;;;;;;;4.75;3.58;;;33.30;47.60;;;;;;5049055;28;20025;-55
2021/08/10 11:24:40;;;;;;;7.53;4.15;;;33.80;48.80;;;;;;5048227;28;20087;-55
2021/08/10 11:27:33;;;;;;;3.97;3.47;;;34.20;46.50;;;;;;5047206;28;20067;-55
2021/08/10 11:29:59;;;;;;;4.60;3.80;;;34.20;45.50;;;;;;5048766;28;20082;-55
2021/08/10 11:32:38;;;;;;;4.82;3.72;;;32.60;45.70;;;;;;5047411;28;20537;-55
2021/08/10 11:35:24;;;;;;;5.15;3.88;;;32.80;46.70;;;;;;5048119;28;20479;-55
2021/08/10 11:38:06;;;;;;;6.20;3.38;;;32.90;47.20;;;;;;5047231;28;20025;-55
2021/08/10 11:40:51;;;;;;;5.00;3.90;;;33.70;45.30;;;;;;5048732;28;20053;-55
2021/08/10 11:43:17;;;;;;;4.28;3.72;;;34.80;45.00;;;;;;5046803;28;20025;-55
2021/08/10 11:45:42;;;;;;;5.50;3.80;;;33.90;44.40;;;;;;5047016;28;20131;-55
2021/08/10 11:48:08;;;;;;;5.68;4.00;;;33.50;45.40;;;;;;5048508;28;20032;-54
2021/08/10 11:50:35;;;;;;;5.32;4.00;;;32.80;45.50;;;;;;5048496;28;20033;-55
2021/08/10 11:53:02;;;;;;;6.20;3.92;;;31.40;47.50;;;;;;5048401;28;20035;-55
2021/08/10 11:55:34;;;;;;;5.03;3.70;;;30.00;49.50;;;;;;5046567;28;20060;-54
2021/08/10 11:58:04;;;;;;;4.63;3.80;;;29.60;50.60;;;;;;5048206;28;20051;-55
2021/08/10 12:00:32;;;;;;;4.97;3.95;;;29.90;49.20;;;;;;5048772;28;20073;-55
2021/08/10 12:02:59;;;;;;;5.65;4.13;;;30.90;49.40;;;;;;5048138;28;20311;-55
2021/08/10 12:05:24;;;;;;;6.45;4.68;;;30.60;47.80;;;;;;5047685;28;20025;-54
2021/08/10 12:07:56;;;;;;;7.53;4.90;;;29.60;49.30;;;;;;5048245;28;20032;-55
2021/08/10 12:10:26;;;;;;;9.45;4.97;;;29.70;49.30;;;;;;5048447;28;20053;-54
2021/08/10 12:12:52;;;;;;;6.35;4.40;;;29.90;50.20;;;;;;5048433;28;20040;-54
2021/08/10 12:15:42;;;;;;;6.55;4.72;;;29.30;49.40;;;;;;5047877;28;20029;-54
2021/08/10 12:18:08;;;;;;;7.63;5.18;;;28.50;52.00;;;;;;5048373;28;20558;-54
2021/08/10 12:20:33;;;;;;;8.02;5.05;;;27.80;52.30;;;;;;5048441;28;20116;-55
2021/08/10 12:23:01;;;;;;;5.65;4.25;;;27.60;52.10;;;;;;5048084;28;20037;-54
2021/08/10 12:25:26;;;;;;;8.55;4.95;;;26.90;55.50;;;;;;5047632;28;20021;-54
2021/08/10 12:28:01;;;;;;;8.07;5.55;;;26.60;53.20;;;;;;5048058;28;20425;-54
2021/08/10 12:30:29;;;;;;;6.25;4.70;;;26.40;54.70;;;;;;5048226;28;20025;-53
2021/08/10 12:33:20;;;;;;;8.13;4.75;;;26.40;53.60;;;;;;5048158;28;20387;-54
2021/08/10 12:36:04;;;;;;;6.72;4.47;;;26.70;56.40;;;;;;5048150;28;20498;-53
2021/08/10 12:38:30;;;;;;;6.72;5.03;;;27.00;54.20;;;;;;5046876;28;20056;-54
2021/08/10 12:40:57;;;;;;;6.22;4.60;;;27.50;54.60;;;;;;5051076;28;20033;-54
2021/08/10 12:43:24;;;;;;;7.90;4.93;;;27.70;54.30;;;;;;5051523;28;20017;-54
2021/08/10 12:45:49;;;;;;;5.85;4.60;;;27.90;52.00;;;;;;5052289;28;20025;-54
2021/08/10 12:48:33;;;;;;;6.43;4.05;;;28.10;53.40;;;;;;5051820;28;20044;-53
2021/08/10 12:51:06;;;;;;;5.72;4.40;;;27.70;51.20;;;;;;5050331;28;20544;-55
2021/08/10 12:53:37;;;;;;;7.55;4.72;;;27.10;53.80;;;;;;5051053;28;20017;-54